CPT2 weather

Killarney Airport
Killarney, Ontario, Canada

Public forecast

Using degrees Celsius for public forecast. Weather courtesy of forecast.io.

Closest aviation weather report (METAR) to Killarney Airport

Closest report is Gore Bay Manitoulin Airport, 45.2 nm (83.6 km) W. Retrieved 2020/04/05 03:39 UTC (4 minutes ago):

CYZE 050339Z AUTO 29013G20KT 9SM OVC010 00/M01 A3005 RMK SLP186

Closest aviation forecast (TAF) to Killarney Airport

Forecast is more than 6 hours old.

Closest forecast is Gore Bay Manitoulin Airport, 45.2 nm (83.6 km) W. Retrieved 2020/04/04 20:00 UTC (8 hours ago):

TAF CYZE 041938Z 0420/0422 24008KT P6SM -RA SCT008 OVC060 TEMPO 0420/0422 5SM -RA BR BKN008 OVC060 RMK FCST BASED ON AUTO OBS NXT FCST WILL BE ISSUED AT 050945Z